createdAt,value
2022-08-22T00:00:33.840Z,100517.25
2022-08-22T00:03:00.574Z,100433.63
2022-08-22T00:03:09.594Z,100482.13
2022-08-22T00:06:15.655Z,100523.44
2022-08-22T00:11:57.848Z,100532.16
2022-08-22T00:17:14.734Z,100519.31
2022-08-22T00:22:34.244Z,100531.44
2022-08-22T00:27:51.505Z,100537.41
2022-08-22T00:32:58.817Z,100535.75
2022-08-22T00:38:13.556Z,100544.19
2022-08-22T00:43:43.687Z,100554.22
2022-08-22T00:49:17.379Z,100542.28
2022-08-22T00:54:20.158Z,100552.75
2022-08-22T00:59:28.858Z,100552.75
2022-08-22T01:04:52.720Z,100550.88
2022-08-22T01:10:20.393Z,100558.56
2022-08-22T01:15:27.879Z,100550.09
2022-08-22T01:20:52.263Z,100551.00
2022-08-22T01:26:09.898Z,100541.72
2022-08-22T01:31:45.078Z,100551.56
2022-08-22T01:37:11.926Z,100553.22
2022-08-22T01:42:42.486Z,100561.09
2022-08-22T01:47:54.192Z,100563.94
2022-08-22T01:53:15.563Z,100553.97
2022-08-22T01:58:22.362Z,100558.88
2022-08-22T02:03:33.525Z,100561.16
2022-08-22T02:09:21.140Z,100564.84
2022-08-22T02:14:44.606Z,100569.91
2022-08-22T02:20:10.108Z,100571.03
2022-08-22T02:25:21.524Z,100571.94
2022-08-22T02:30:48.968Z,100576.66
2022-08-22T02:36:00.420Z,100577.47
2022-08-22T02:41:27.359Z,100588.63
2022-08-22T02:46:42.394Z,100587.72
2022-08-22T02:52:03.747Z,100591.81
2022-08-22T02:57:13.072Z,100589.13
2022-08-22T03:02:37.123Z,100599.19
2022-08-22T03:07:46.331Z,100600.28
2022-08-22T03:13:11.731Z,100600.38
2022-08-22T03:18:41.989Z,100603.13
2022-08-22T03:23:55.690Z,100614.28
2022-08-22T03:29:06.887Z,100623.84
2022-08-22T03:34:25.499Z,100617.31
2022-08-22T03:39:47.003Z,100622.44
2022-08-22T03:45:11.627Z,100623.41
2022-08-22T03:50:47.879Z,100626.91
2022-08-22T03:56:28.088Z,100629.50
2022-08-22T04:01:43.510Z,100641.44
2022-08-22T04:07:01.840Z,100634.63
2022-08-22T04:12:41.648Z,100624.38
2022-08-22T04:17:57.648Z,100620.16
2022-08-22T04:23:19.376Z,100608.09
2022-08-22T04:28:36.786Z,100627.03
2022-08-22T04:33:51.168Z,100631.31
2022-08-22T04:39:04.433Z,100621.03
2022-08-22T04:44:33.103Z,100614.13
2022-08-22T04:49:39.865Z,100624.47
2022-08-22T04:55:09.108Z,100627.06
2022-08-22T05:00:14.449Z,100629.63
2022-08-22T05:05:24.269Z,100627.91
2022-08-22T05:10:33.829Z,100630.47
2022-08-22T05:15:43.215Z,100626.19
2022-08-22T05:20:49.252Z,100630.44
2022-08-22T05:25:55.914Z,100627.06
2022-08-22T05:30:58.884Z,100631.38
2022-08-22T05:36:26.284Z,100631.38
2022-08-22T05:41:34.122Z,100615.84
2022-08-22T05:46:46.166Z,100613.19
2022-08-22T05:51:59.086Z,100619.22
2022-08-22T05:57:26.773Z,100620.06
2022-08-22T06:02:52.592Z,100624.31
2022-08-22T06:08:45.046Z,100611.13
2022-08-22T06:14:19.775Z,100619.13
2022-08-22T06:19:27.785Z,100611.56
2022-08-22T06:24:37.218Z,100621.03
2022-08-22T06:29:49.682Z,100623.28
2022-08-22T06:35:02.341Z,100629.94
2022-08-22T06:40:09.136Z,100627.66
2022-08-22T06:45:24.653Z,100625.22
2022-08-22T06:50:32.280Z,100630.41
2022-08-22T06:55:36.393Z,100629.59
2022-08-22T07:00:42.951Z,100634.84
2022-08-22T07:05:45.768Z,100633.00
2022-08-22T07:10:56.275Z,100622.06
2022-08-22T07:16:00.345Z,100625.78
2022-08-22T07:21:05.220Z,100630.91
2022-08-22T07:26:26.317Z,100622.97
2022-08-22T07:31:47.223Z,100628.09
2022-08-22T07:37:04.301Z,100624.03
2022-08-22T07:42:14.901Z,100643.56
2022-08-22T07:47:26.310Z,100645.03
2022-08-22T07:52:36.068Z,100646.84
2022-08-22T07:57:42.273Z,100652.00
2022-08-22T08:02:57.057Z,100642.50
2022-08-22T08:08:02.993Z,100663.19
2022-08-22T08:13:08.686Z,100658.03
2022-08-22T08:18:21.286Z,100656.28
2022-08-22T08:23:25.459Z,100661.25
2022-08-22T08:28:34.225Z,100660.97
2022-08-22T08:33:41.706Z,100656.41
2022-08-22T08:38:50.223Z,100655.53
2022-08-22T08:44:31.221Z,100658.97
2022-08-22T08:49:35.403Z,100649.88
2022-08-22T08:54:56.003Z,100655.66
2022-08-22T09:00:15.910Z,100667.00
2022-08-22T09:05:40.253Z,100669.94
2022-08-22T09:11:11.981Z,100677.25
2022-08-22T09:16:47.307Z,100675.75
2022-08-22T09:22:20.036Z,100679.31
2022-08-22T09:27:46.508Z,100678.50
2022-08-22T09:33:15.156Z,100677.59
2022-08-22T09:38:40.412Z,100662.69
2022-08-22T09:44:25.275Z,100638.38
2022-08-22T09:49:58.783Z,100666.25
2022-08-22T09:55:08.612Z,100680.41
2022-08-22T10:00:27.390Z,100663.44
2022-08-22T10:05:43.574Z,100696.69
2022-08-22T10:11:19.610Z,100700.22
2022-08-22T10:16:27.229Z,100689.91
2022-08-22T10:21:39.690Z,100704.50
2022-08-22T10:26:53.086Z,100695.06
2022-08-22T10:32:14.644Z,100701.97
2022-08-22T10:37:47.940Z,100699.38
2022-08-22T10:43:02.386Z,100697.66
2022-08-22T10:48:05.119Z,100700.16
2022-08-22T10:53:36.366Z,100703.66
2022-08-22T10:59:20.001Z,100699.28
2022-08-22T11:04:39.656Z,100692.09
2022-08-22T11:09:54.290Z,100697.75
2022-08-22T11:15:06.239Z,100696.63
2022-08-22T11:20:54.061Z,100695.69
2022-08-22T11:26:05.568Z,100688.66
2022-08-22T11:31:23.416Z,100699.78
2022-08-22T11:36:50.314Z,100705.97
2022-08-22T11:41:59.693Z,100704.41
2022-08-22T11:47:03.519Z,100709.84
2022-08-22T11:52:22.646Z,100713.66
2022-08-22T11:57:44.805Z,100719.81
2022-08-22T12:03:06.013Z,100725.00
2022-08-22T12:08:15.202Z,100715.47
2022-08-22T12:13:34.982Z,100724.13
2022-08-22T12:19:15.771Z,100724.91
2022-08-22T12:24:32.205Z,100728.34
2022-08-22T12:29:51.853Z,100736.19
2022-08-22T12:35:01.087Z,100745.06
2022-08-22T12:40:27.324Z,100745.06
2022-08-22T12:45:42.083Z,100748.53
2022-08-22T12:50:59.767Z,100750.19
2022-08-22T12:56:06.822Z,100754.19
2022-08-22T13:01:13.449Z,100762.72
2022-08-22T13:06:37.972Z,100762.59
2022-08-22T13:11:42.553Z,100770.09
2022-08-22T13:16:51.629Z,100775.72
2022-08-22T13:22:24.425Z,100785.03
2022-08-22T13:27:34.685Z,100774.66
2022-08-22T13:32:46.093Z,100790.38
2022-08-22T13:37:52.098Z,100806.00
2022-08-22T13:43:12.313Z,100801.94
2022-08-22T13:48:16.129Z,100805.09
2022-08-22T13:53:48.944Z,100824.41
2022-08-22T13:59:06.326Z,100817.19
2022-08-22T14:04:32.044Z,100833.97
2022-08-22T14:09:59.139Z,100838.53
2022-08-22T14:15:08.340Z,100839.81
2022-08-22T14:20:32.177Z,100860.84
2022-08-22T14:25:39.108Z,100868.28
2022-08-22T14:30:59.448Z,100861.94
2022-08-22T14:36:15.473Z,100853.91
2022-08-22T14:41:52.356Z,100871.56
2022-08-22T14:47:04.357Z,100865.66
2022-08-22T14:52:36.294Z,100866.44
2022-08-22T14:57:54.870Z,100879.19
2022-08-22T15:03:21.396Z,100881.41
2022-08-22T15:08:33.273Z,100892.03
2022-08-22T15:13:37.523Z,100902.81
2022-08-22T15:18:41.588Z,100904.41
2022-08-22T15:24:03.685Z,100903.59
2022-08-22T15:29:21.178Z,100903.00
2022-08-22T15:34:24.411Z,100915.59
2022-08-22T15:39:32.664Z,100916.59
2022-08-22T15:44:44.383Z,100926.59
2022-08-22T15:49:58.644Z,100935.19
2022-08-22T15:55:19.948Z,100929.78
2022-08-22T16:00:36.375Z,100936.47
2022-08-22T16:05:55.357Z,100942.53
2022-08-22T16:11:17.065Z,100945.75
2022-08-22T16:16:35.124Z,100950.78
2022-08-22T16:21:59.900Z,100949.00
2022-08-22T16:27:25.626Z,100955.53
2022-08-22T16:32:28.924Z,100960.50
2022-08-22T16:37:36.717Z,100962.25
2022-08-22T16:42:46.840Z,100967.25
2022-08-22T16:47:58.149Z,100959.34
2022-08-22T16:53:21.703Z,100968.00
2022-08-22T16:58:57.513Z,100960.00
2022-08-22T17:04:28.521Z,100965.03
2022-08-22T17:09:52.569Z,100970.31
2022-08-22T17:15:22.686Z,100971.59
2022-08-22T17:20:58.855Z,100967.88
2022-08-22T17:26:08.903Z,100977.66
2022-08-22T17:31:31.896Z,100976.97
2022-08-22T17:36:40.481Z,100966.50
2022-08-22T17:42:21.158Z,100977.91
2022-08-22T17:47:31.000Z,100977.19
2022-08-22T17:52:49.748Z,100961.69
2022-08-22T17:58:05.152Z,100964.06
2022-08-22T18:03:09.209Z,100972.44
2022-08-22T18:14:05.150Z,100985.09
2022-08-22T18:19:29.254Z,100975.97
2022-08-22T18:25:19.450Z,100969.78
2022-08-22T18:30:27.852Z,100978.06
2022-08-22T18:35:33.382Z,100981.28
2022-08-22T18:40:54.029Z,100984.56
2022-08-22T18:46:02.963Z,100980.78
2022-08-22T18:51:32.218Z,100978.91
2022-08-22T18:57:18.858Z,100981.91
2022-08-22T19:03:00.991Z,100991.66
2022-08-22T19:08:17.028Z,100989.59
2022-08-22T19:13:22.933Z,100990.78
2022-08-22T19:18:43.586Z,100994.59
2022-08-22T19:23:48.877Z,100998.91
2022-08-22T19:28:53.992Z,101000.41
2022-08-22T19:34:20.067Z,100996.22
2022-08-22T19:39:41.441Z,101005.97
2022-08-22T19:44:47.524Z,101004.50
2022-08-22T19:50:17.848Z,101000.75
2022-08-22T19:55:29.602Z,101003.72
2022-08-22T20:01:00.203Z,101006.06
2022-08-22T20:06:43.529Z,101009.75
2022-08-22T20:12:13.278Z,101012.97
2022-08-22T20:17:27.146Z,101016.59
2022-08-22T20:23:05.650Z,101033.69
2022-08-22T20:28:10.284Z,101018.41
2022-08-22T20:33:27.984Z,101029.81
2022-08-22T20:38:40.254Z,101022.91
2022-08-22T20:43:46.879Z,101025.56
2022-08-22T20:48:51.968Z,101024.81
2022-08-22T20:54:10.291Z,101023.25
2022-08-22T20:59:36.190Z,101033.41
2022-08-22T21:04:46.716Z,101030.50
2022-08-22T21:10:22.614Z,101030.31
2022-08-22T21:15:41.015Z,101027.34
2022-08-22T21:20:43.790Z,101033.06
2022-08-22T21:25:56.419Z,101038.69
2022-08-22T21:31:00.086Z,101039.47
2022-08-22T21:36:02.916Z,101041.22
2022-08-22T21:41:06.411Z,101048.53
2022-08-22T21:46:09.182Z,101048.88
2022-08-22T21:51:45.347Z,101041.75
2022-08-22T21:56:49.715Z,101056.78
2022-08-22T22:01:53.850Z,101058.28
2022-08-22T22:06:58.366Z,101045.78
2022-08-22T22:12:01.469Z,101068.09
2022-08-22T22:17:04.447Z,101063.97
2022-08-22T22:22:07.345Z,101042.72
2022-08-22T22:27:14.931Z,101074.50
2022-08-22T22:32:19.653Z,101084.06
2022-08-22T22:37:22.385Z,101088.22
2022-08-22T22:42:25.214Z,101087.25
2022-08-22T22:47:29.987Z,101092.00
2022-08-22T22:52:33.093Z,101101.63
2022-08-22T22:57:42.488Z,101096.31
2022-08-22T23:02:45.570Z,101096.94
2022-08-22T23:07:48.339Z,101106.63
2022-08-22T23:12:51.149Z,101100.50
2022-08-22T23:17:54.015Z,101110.28
2022-08-22T23:22:56.852Z,101095.25
2022-08-22T23:28:00.116Z,101116.31
2022-08-22T23:33:03.367Z,101117.72
2022-08-22T23:38:06.181Z,101124.00
2022-08-22T23:43:08.995Z,101126.75
2022-08-22T23:48:11.885Z,101136.28
2022-08-22T23:53:14.680Z,101125.19
2022-08-22T23:58:17.501Z,101141.91
